Latest Weather Observations for Melbourne Airport

IDV60801

Issued at 1:32 am EST Wednesday 27 July 2016 (issued every 30 minutes, with the page automatically refreshed every 10 minutes)

About weather observations | Map of weather stations | Latest weather observations for VIC | Other Formats
Station Details ID: 086282 Name: MELBOURNE AIRPORT Lat: -37.67 Lon: 144.83 Height: 113.4 m
Data from the previous 72 hours. | See also: Recent months at Melbourne Airport
Date/Time
EST
Temp
°C
App
Temp
°C
Dew
Point
°C
Rel
Hum
%
Delta-T
°C
Wind Press
QNH
hPa
Press
MSL
hPa
Rain since
9am
mm
Dir  Spd
km/h
Gust
km/h
Spd
kts
Gust
kts
27/01:00am 8.2 1.6 4.4 77 1.7 N 28 39 15 21 1005.8 1006.0 0.0
27/12:30am 8.4 1.4 4.3 75 1.8 N 30 37 16 20 1005.9 1006.1 0.0
27/12:00am 8.1 0.8 4.5 78 1.6 N 32 39 17 21 1005.6 1005.8 0.0
 
Date/Time
EST
Temp
°C
App
Temp
°C
Dew
Point
°C
Rel
Hum
%
Delta-T
°C
Wind Press
QNH
hPa
Press
MSL
hPa
Rain since
9am
mm
Dir  Spd
km/h
Gust
km/h
Spd
kts
Gust
kts
26/11:33pm 8.1 1.0 3.7 74 1.9 N 30 48 16 26 1006.1 1006.3 0.0
26/11:30pm 8.1 0.6 3.7 74 1.9 N 32 48 17 26 1006.1 1006.3 0.0
26/11:00pm 8.4 0.3 3.3 70 2.2 N 35 50 19 27 1005.8 1006.0 0.0
26/10:30pm 8.2 0.8 3.9 74 1.9 N 32 43 17 23 1006.4 1006.6 0.0
26/10:00pm 8.5 1.4 3.4 70 2.2 N 30 39 16 21 1006.8 1007.0 0.0
26/09:42pm 8.7 0.2 3.1 68 2.4 N 37 57 20 31 1006.6 1006.8 0.0
26/09:30pm 8.6 0.9 3.3 69 2.3 N 33 43 18 23 1006.6 1006.8 0.0
26/09:00pm 8.8 0.3 3.3 68 2.4 N 37 50 20 27 1006.9 1007.1 0.0
26/08:30pm 9.0 0.1 3.0 66 2.6 N 39 54 21 29 1006.7 1006.9 0.0
26/08:00pm 9.1 1.5 3.1 66 2.6 NNW 32 50 17 27 1007.5 1007.7 0.0
26/07:30pm 8.6 2.3 3.8 72 2.1 N 26 39 14 21 1007.8 1008.0 0.0
26/07:00pm 8.5 1.8 3.4 70 2.2 N 28 37 15 20 1007.9 1008.1 0.0
26/06:30pm 8.8 1.3 3.3 68 2.4 N 32 44 17 24 1008.2 1008.4 0.0
26/06:00pm 8.3 2.0 4.0 74 1.9 NNE 26 35 14 19 1008.3 1008.5 0.0
26/05:30pm 8.3 1.4 2.6 67 2.4 N 28 37 15 20 1008.4 1008.6 0.0
26/05:00pm 8.6 1.3 2.2 64 2.7 NNW 30 39 16 21 1008.3 1008.5 0.0
26/04:30pm 9.5 1.7 1.6 58 3.3 NNW 32 43 17 23 1008.6 1008.8 0.0
26/04:00pm 10.0 2.0 1.7 56 3.5 N 33 44 18 24 1009.0 1009.2 0.0
26/03:30pm 9.9 2.5 1.9 57 3.4 N 30 43 16 23 1009.5 1009.6 0.0
26/03:00pm 9.3 1.9 1.9 60 3.1 N 30 37 16 20 1009.8 1009.9 0.0
26/02:30pm 9.3 4.4 1.9 60 3.1 NNW 17 28 9 15 1010.4 1010.5 0.0
26/02:00pm 8.9 2.9 3.1 67 2.5 N 24 32 13 17 1010.8 1010.9 0.0
26/01:30pm 8.5 2.3 2.3 65 2.6 NNW 24 33 13 18 1011.4 1011.6 0.0
26/01:00pm 8.8 2.6 2.1 63 2.8 NNW 24 33 13 18 1011.7 1011.9 0.0
26/12:30pm 8.7 1.7 2.0 63 2.8 NNW 28 37 15 20 1012.4 1012.6 0.0
26/12:00pm 8.0 1.3 1.4 63 2.7 NNW 26 39 14 21 1012.8 1013.0 0.0
26/11:30am 8.2 0.4 2.0 65 2.6 NNW 32 50 17 27 1013.1 1013.3 0.0
26/11:28am 8.0 0.2 1.7 64 2.6 NNW 32 50 17 27 1013.1 1013.3 0.0
26/11:00am 7.9 0.0 2.4 68 2.3 NNW 33 43 18 23 1013.2 1013.4 0.0
26/10:30am 7.5 -0.9 1.7 66 2.4 N 35 46 19 25 1013.2 1013.4 0.0
26/10:00am 7.4 -0.3 2.4 70 2.1 N 32 37 17 20 1013.3 1013.5 0.0
26/09:30am 6.9 -0.9 2.0 71 2.0 N 32 37 17 20 1013.1 1013.3 0.0
26/09:00am 6.4 0.1 1.7 72 1.9 N 24 30 13 16 1013.2 1013.4 3.4
26/08:30am 5.6 -1.5 1.3 74 1.7 N 28 33 15 18 1012.9 1013.1 3.4
26/08:00am 5.4 -1.4 0.8 72 1.8 N 26 32 14 17 1012.7 1012.9 3.4
26/07:30am 5.5 -0.6 0.7 71 1.9 NNW 22 30 12 16 1012.4 1012.6 3.4
26/07:00am 5.6 -0.1 0.8 71 1.9 N 20 26 11 14 1012.2 1012.4 3.4
26/06:30am 4.6 -0.9 0.7 76 1.5 N 19 22 10 12 1011.9 1012.1 3.4
26/06:00am 5.1 -0.4 0.8 74 1.7 NNW 19 28 10 15 1011.2 1011.3 3.4
26/05:30am 5.3 -0.4 0.7 72 1.8 NNW 20 28 11 15 1010.9 1011.0 3.4
26/05:00am 5.5 0.4 0.7 71 1.9 NNW 17 22 9 12 1010.8 1010.9 3.4
26/04:30am 5.4 -0.2 0.2 69 2.0 NNW 19 24 10 13 1010.1 1010.2 3.4
26/04:00am 5.4 0.2 0.2 69 2.0 NNW 17 20 9 11 1010.1 1010.2 3.4
26/03:30am 5.8 -0.4 -0.2 65 2.3 NW 22 35 12 19 1010.1 1010.2 3.4
26/03:00am 5.7 0.5 0.0 67 2.2 NW 17 24 9 13 1010.0 1010.1 3.4
26/02:30am 6.6 0.8 -0.4 61 2.7 NW 20 32 11 17 1010.0 1010.1 3.4
26/02:00am 6.6 -0.4 -0.4 61 2.7 WNW 26 35 14 19 1009.8 1009.9 3.4
26/01:30am 6.9 0.4 0.0 61 2.7 NW 24 35 13 19 1009.6 1009.7 3.4
26/01:00am 6.5 0.9 -0.2 62 2.6 NW 19 30 10 16 1009.1 1009.3 3.4
26/12:30am 6.6 0.0 -0.1 62 2.6 NW 24 35 13 19 1008.8 1009.0 3.4
26/12:00am 6.8 -0.1 0.2 63 2.6 WNW 26 35 14 19 1008.6 1008.8 3.4
 
Date/Time
EST
Temp
°C
App
Temp
°C
Dew
Point
°C
Rel
Hum
%
Delta-T
°C
Wind Press
QNH
hPa
Press
MSL
hPa
Rain since
9am
mm
Dir  Spd
km/h
Gust
km/h
Spd
kts
Gust
kts
25/11:30pm 7.1 -0.5 0.3 62 2.7 WNW 30 43 16 23 1008.4 1008.6 3.4
25/11:01pm 7.3 -1.3 0.2 60 2.8 WNW 35 54 19 29 1008.2 1008.4 3.4
25/11:00pm 7.3 -1.7 0.2 60 2.8 WNW 37 54 20 29 1008.2 1008.4 3.4
25/10:30pm 7.1 -2.1 1.2 66 2.4 WNW 39 56 21 30 1007.9 1008.1 3.4
25/10:13pm 7.3 -2.4 0.8 63 2.6 WNW 41 59 22 32 1007.6 1007.8 3.4
25/10:00pm 6.8 -1.9 1.7 70 2.1 WNW 37 52 20 28 1007.5 1007.7 3.4
25/09:56pm 6.7 -1.2 2.1 72 1.9 WNW 33 52 18 28 1007.5 1007.7 3.4
25/09:30pm 5.9 -1.8 2.5 79 1.4 WNW 32 44 17 24 1007.4 1007.6 3.4
25/09:08pm 6.4 -2.5 2.8 78 1.5 W 39 56 21 30 1007.6 1007.8 3.4
25/09:00pm 6.4 -4.4 4.1 85 1.0 W 50 76 27 41 1007.9 1008.1 3.4
25/08:51pm 7.3 -3.2 3.8 78 1.5 W 48 74 26 40 1007.8 1008.0 2.8
25/08:47pm 7.8 -1.6 2.6 69 2.2 W 41 67 22 36 1007.3 1007.5 2.6
25/08:42pm 8.7 1.6 3.7 71 2.2 W 30 61 16 33 1007.1 1007.3 2.6
25/08:30pm 9.5 2.6 2.8 63 2.9 W 28 41 15 22 1006.5 1006.7 2.6
25/08:00pm 9.1 4.2 4.9 75 1.9 WNW 20 30 11 16 1005.8 1006.0 2.6
25/07:30pm 9.9 6.7 7.0 82 1.4 NW 13 19 7 10 1005.5 1005.7 2.6
25/07:00pm 9.6 4.5 7.5 87 1.0 WNW 24 35 13 19 1005.5 1005.7 2.6
25/06:51pm 9.3 3.9 7.9 91 0.7 W 26 33 14 18 1005.6 1005.8 2.2
25/06:43pm 9.6 3.4 7.7 88 0.9 WNW 30 48 16 26 1005.7 1005.9 1.2
25/06:35pm 9.9 2.3 7.6 85 1.1 WNW 37 48 20 26 1005.3 1005.5 0.2
25/06:30pm 10.2 2.9 7.1 81 1.5 NW 35 48 19 26 1005.0 1005.2 0.0
25/06:00pm 10.7 2.7 5.5 70 2.4 NNW 37 57 20 31 1003.1 1003.2 0.0
25/05:53pm 10.6 2.6 5.9 73 2.2 NNW 37 57 20 31 1002.7 1002.8 0.0
25/05:30pm 10.8 2.3 5.2 68 2.6 N 39 50 21 27 1002.8 1002.9 0.0
25/05:00pm 11.4 2.1 4.9 64 3.0 N 43 63 23 34 1003.0 1003.1 0.0
25/04:38pm 11.5 2.9 4.8 63 3.1 N 39 59 21 32 1003.3 1003.4 0.0
25/04:30pm 11.4 2.8 4.6 63 3.1 N 39 52 21 28 1003.4 1003.5 0.0
25/04:18pm 11.7 2.7 4.5 61 3.3 N 41 59 22 32 1003.6 1003.7 0.0
25/04:00pm 11.6 3.0 4.4 61 3.3 N 39 54 21 29 1004.1 1004.2 0.0
25/03:30pm 11.9 3.1 3.7 57 3.7 N 39 57 21 31 1004.3 1004.5 0.0
25/03:26pm 11.9 3.1 3.7 57 3.7 N 39 57 21 31 1004.6 1004.8 0.0
25/03:00pm 12.3 4.1 2.5 51 4.3 NNW 35 52 19 28 1005.1 1005.3 0.0
25/02:34pm 12.3 5.0 2.2 50 4.4 NNW 30 48 16 26 1005.3 1005.5 0.0
25/02:30pm 12.2 4.4 1.8 49 4.5 NNW 32 48 17 26 1005.3 1005.5 0.0
25/02:00pm 12.1 5.2 2.3 51 4.3 NNW 28 46 15 25 1005.9 1006.1 0.0
25/01:30pm 12.8 5.4 2.1 48 4.7 NNW 30 41 16 22 1006.4 1006.6 0.0
25/01:00pm 12.0 4.2 1.8 49 4.4 NNW 32 44 17 24 1007.5 1007.7 0.0
25/12:30pm 12.4 5.1 2.4 50 4.4 NNW 30 44 16 24 1008.1 1008.3 0.0
25/12:00pm 12.2 5.6 4.1 57 3.7 NNW 28 48 15 26 1008.6 1008.8 0.0
25/11:57am 12.8 6.6 4.3 56 3.9 NNW 26 48 14 26 1008.5 1008.7 0.0
25/11:30am 10.8 4.7 3.0 58 3.4 NW 24 39 13 21 1008.9 1009.1 0.0
25/11:00am 11.1 3.5 4.0 61 3.2 WNW 33 44 18 24 1009.3 1009.4 0.0
25/10:30am 10.9 3.6 4.5 64 2.9 WNW 32 43 17 23 1009.5 1009.6 0.0
25/10:00am 10.6 6.7 5.2 69 2.5 NW 15 30 8 16 1009.4 1009.5 0.0
25/09:30am 9.2 4.8 4.8 74 2.0 N 17 24 9 13 1009.5 1009.6 0.0
25/09:00am 8.8 3.9 4.3 73 2.0 NNW 19 26 10 14 1009.1 1009.3 0.0
25/08:30am 8.3 2.8 4.2 75 1.8 N 22 28 12 15 1009.0 1009.2 0.0
25/08:00am 7.7 1.8 3.8 76 1.7 NNW 24 30 13 16 1008.7 1008.9 0.0
25/07:30am 7.3 1.0 3.6 77 1.6 NNW 26 33 14 18 1008.2 1008.4 0.0
25/07:00am 7.0 1.9 3.2 77 1.6 NNW 19 24 10 13 1007.6 1007.8 0.0
25/06:30am 6.7 1.1 3.2 78 1.5 N 22 28 12 15 1007.3 1007.5 0.0
25/06:00am 7.3 1.3 3.3 76 1.7 N 24 30 13 16 1007.1 1007.3 0.0
25/05:30am 7.1 1.5 3.4 77 1.6 N 22 28 12 15 1006.7 1006.9 0.0
25/05:00am 5.9 -0.1 3.3 83 1.1 N 24 28 13 15 1006.6 1006.8 0.0
25/04:30am 6.9 0.9 3.1 77 1.6 NNW 24 32 13 17 1006.2 1006.4 0.0
25/04:00am 6.8 1.1 3.0 77 1.6 N 22 30 12 16 1005.9 1006.1 0.0
25/03:30am 6.6 0.5 3.0 78 1.5 N 24 30 13 16 1005.6 1005.8 0.0
25/03:00am 6.5 0.4 2.9 78 1.5 N 24 30 13 16 1005.6 1005.8 0.0
25/02:30am 6.6 0.5 2.8 77 1.6 N 24 28 13 15 1005.6 1005.8 0.0
25/02:00am 6.4 1.1 3.1 79 1.4 N 20 22 11 12 1005.4 1005.6 0.0
25/01:30am 6.4 1.7 3.3 80 1.3 N 17 20 9 11 1005.4 1005.6 0.0
25/01:00am 5.9 1.9 3.0 82 1.2 N 13 15 7 8 1005.4 1005.6 0.0
25/12:30am 6.3 1.2 3.2 80 1.3 N 19 22 10 12 1005.2 1005.4 0.0
25/12:00am 6.8 2.1 3.3 78 1.5 N 17 22 9 12 1005.4 1005.6 0.0
 
Date/Time
EST
Temp
°C
App
Temp
°C
Dew
Point
°C
Rel
Hum
%
Delta-T
°C
Wind Press
QNH
hPa
Press
MSL
hPa
Rain since
9am
mm
Dir  Spd
km/h
Gust
km/h
Spd
kts
Gust
kts
24/11:30pm 7.3 2.6 3.3 76 1.7 N 17 22 9 12 1005.3 1005.5 0.0
24/11:00pm 8.1 2.9 3.5 73 2.0 NNW 20 30 11 16 1005.2 1005.4 0.0
24/10:30pm 8.2 3.0 3.6 73 2.0 NNW 20 33 11 18 1005.0 1005.2 0.0
24/10:00pm 8.4 2.8 3.6 72 2.1 NNW 22 32 12 17 1005.2 1005.4 0.0
24/09:30pm 8.1 3.9 3.7 74 1.9 NNW 15 20 8 11 1005.2 1005.4 0.0
24/09:00pm 7.9 2.8 4.3 78 1.6 NNW 20 28 11 15 1005.1 1005.3 0.0
24/08:30pm 7.9 0.8 3.8 75 1.8 N 30 35 16 19 1005.0 1005.2 0.0
24/08:00pm 7.7 1.3 3.3 74 1.9 N 26 33 14 18 1005.2 1005.4 0.0
24/07:30pm 8.3 1.2 3.5 72 2.1 N 30 41 16 22 1005.2 1005.4 0.0
24/07:00pm 8.6 0.4 4.6 76 1.8 N 37 50 20 27 1005.1 1005.3 0.0
24/06:30pm 7.8 1.0 4.9 82 1.3 N 30 41 16 22 1004.6 1004.8 0.0
24/06:19pm 8.0 1.1 4.6 79 1.5 N 30 54 16 29 1004.7 1004.9 0.0
24/06:00pm 8.0 1.3 3.9 75 1.8 N 28 35 15 19 1004.6 1004.8 0.0
24/05:30pm 8.2 2.1 4.6 78 1.6 NNE 26 39 14 21 1004.8 1005.0 0.0
24/05:00pm 8.5 1.2 4.5 76 1.8 N 32 41 17 22 1005.1 1005.3 0.0
24/04:30pm 8.6 2.1 4.6 76 1.8 N 28 35 15 19 1005.6 1005.8 0.0
24/04:00pm 8.7 1.3 4.2 73 2.0 N 32 41 17 22 1005.6 1005.8 0.0
24/03:30pm 8.8 1.5 4.3 73 2.0 N 32 39 17 21 1005.9 1006.1 0.0
24/03:00pm 9.5 1.9 4.1 69 2.4 N 33 52 18 28 1006.3 1006.5 0.0
24/02:59pm 9.5 1.9 4.1 69 2.4 N 33 52 18 28 1006.3 1006.5 0.0
24/02:30pm 9.6 1.5 3.4 65 2.7 N 35 46 19 25 1006.3 1006.5 0.0
24/02:00pm 10.5 2.0 3.2 60 3.2 N 37 50 20 27 1006.9 1007.1 0.0
24/01:30pm 10.5 1.2 2.7 58 3.4 N 41 56 22 30 1006.9 1007.1 0.0
24/01:00pm 10.3 1.3 2.7 59 3.3 N 39 50 21 27 1007.4 1007.6 0.0
24/12:30pm 9.0 0.6 3.5 68 2.4 N 37 50 20 27 1008.0 1008.2 0.0
24/12:04pm 9.0 0.9 3.5 68 2.4 N 35 54 19 29 1008.6 1008.8 0.0
24/12:00pm 8.9 0.4 3.4 68 2.4 N 37 50 20 27 1008.6 1008.8 0.0
24/11:30am 8.8 0.4 3.5 69 2.3 N 37 52 20 28 1009.3 1009.4 0.0
24/11:00am 9.1 0.2 2.8 64 2.7 N 39 50 21 27 1009.8 1009.9 0.0
24/10:30am 8.2 0.5 3.3 71 2.1 N 33 41 18 22 1010.4 1010.5 0.0
24/10:00am 7.2 -1.4 2.7 73 1.9 N 37 48 20 26 1010.4 1010.5 0.0
24/09:30am 6.0 -2.3 2.4 78 1.5 N 35 43 19 23 1010.2 1010.3 0.0
24/09:00am 4.9 -3.1 1.9 81 1.2 N 33 43 18 23 1010.5 1010.6 0.2
24/08:30am 4.1 -3.7 1.6 84 1.0 N 32 39 17 21 1010.4 1010.5 0.2
24/08:00am 3.9 -3.2 1.1 82 1.1 N 28 35 15 19 1010.6 1010.7 0.2
24/07:30am 4.0 -3.2 0.9 80 1.2 N 28 33 15 18 1010.7 1010.8 0.2
24/07:00am 3.1 -3.3 1.0 86 0.8 N 24 28 13 15 1010.7 1010.8 0.2
24/06:30am 4.0 -2.4 1.2 82 1.1 N 24 28 13 15 1010.7 1010.8 0.2
24/06:00am 3.1 -2.3 1.3 88 0.7 N 19 20 10 11 1010.8 1010.9 0.2
24/05:30am 2.6 -3.4 0.8 88 0.7 N 22 26 12 14 1011.0 1011.1 0.2
24/05:00am 2.9 -2.8 0.8 86 0.8 N 20 22 11 12 1011.2 1011.3 0.2
24/04:30am 2.3 -3.3 1.0 91 0.5 N 20 22 11 12 1011.7 1011.9 0.2
24/04:00am 4.2 -1.8 0.9 79 1.3 N 22 26 12 14 1012.1 1012.3 0.2
24/03:30am 3.6 -1.5 1.0 83 1.0 N 17 19 9 10 1012.2 1012.4 0.2
24/03:00am 3.0 -3.0 1.2 88 0.7 N 22 28 12 15 1012.3 1012.5 0.2
24/02:30am 4.1 -2.3 1.0 80 1.2 N 24 28 13 15 1012.4 1012.6 0.2
24/02:00am 4.2 -1.4 1.1 80 1.2 N 20 24 11 13 1012.4 1012.6 0.2

Other Formats:

Comma delimited format used in spreadsheet applications
http://www.bom.gov.au/fwo/IDV60801/IDV60801.94866.axf

JavaScript Object Notation format (JSON) in row-major order
http://www.bom.gov.au/fwo/IDV60801/IDV60801.94866.json